sensor_id;sensor_type;location;lat;lon;timestamp;temperature;humidity
7998;DHT22;4044;49.814;7.828;2023-02-26T00:01:01;0.00;83.90
7998;DHT22;4044;49.814;7.828;2023-02-26T00:03:28;-0.20;84.40
7998;DHT22;4044;49.814;7.828;2023-02-26T00:05:59;-0.30;83.80
7998;DHT22;4044;49.814;7.828;2023-02-26T00:08:25;-0.40;83.80
7998;DHT22;4044;49.814;7.828;2023-02-26T00:10:51;-0.40;84.80
7998;DHT22;4044;49.814;7.828;2023-02-26T00:13:19;-0.50;85.00
7998;DHT22;4044;49.814;7.828;2023-02-26T00:15:45;-0.60;84.60
7998;DHT22;4044;49.814;7.828;2023-02-26T00:18:14;-0.70;84.70
7998;DHT22;4044;49.814;7.828;2023-02-26T00:20:40;-0.70;85.10
7998;DHT22;4044;49.814;7.828;2023-02-26T00:23:10;-0.70;86.00
7998;DHT22;4044;49.814;7.828;2023-02-26T00:25:38;-0.80;86.80
7998;DHT22;4044;49.814;7.828;2023-02-26T00:28:04;-0.70;87.00
7998;DHT22;4044;49.814;7.828;2023-02-26T00:30:30;-0.70;86.70
7998;DHT22;4044;49.814;7.828;2023-02-26T00:32:56;-0.70;86.40
7998;DHT22;4044;49.814;7.828;2023-02-26T00:35:21;-0.70;85.70
7998;DHT22;4044;49.814;7.828;2023-02-26T00:40:34;-0.50;85.80
7998;DHT22;4044;49.814;7.828;2023-02-26T00:43:02;-0.40;85.10
7998;DHT22;4044;49.814;7.828;2023-02-26T00:45:28;-0.30;85.70
7998;DHT22;4044;49.814;7.828;2023-02-26T00:48:29;-0.20;86.10
7998;DHT22;4044;49.814;7.828;2023-02-26T00:51:15;-0.20;86.10
7998;DHT22;4044;49.814;7.828;2023-02-26T00:53:47;-0.20;86.70
7998;DHT22;4044;49.814;7.828;2023-02-26T00:56:14;-0.10;87.00
7998;DHT22;4044;49.814;7.828;2023-02-26T00:58:40;0.00;87.10
7998;DHT22;4044;49.814;7.828;2023-02-26T01:01:05;0.00;86.90
7998;DHT22;4044;49.814;7.828;2023-02-26T01:03:31;0.10;86.60
7998;DHT22;4044;49.814;7.828;2023-02-26T01:05:57;0.20;85.80
7998;DHT22;4044;49.814;7.828;2023-02-26T01:08:31;0.30;85.30
7998;DHT22;4044;49.814;7.828;2023-02-26T01:10:59;0.50;85.20
7998;DHT22;4044;49.814;7.828;2023-02-26T01:13:25;0.60;85.00
7998;DHT22;4044;49.814;7.828;2023-02-26T01:16:01;0.60;85.80
7998;DHT22;4044;49.814;7.828;2023-02-26T01:18:36;0.60;85.90
7998;DHT22;4044;49.814;7.828;2023-02-26T01:21:04;0.80;84.90
7998;DHT22;4044;49.814;7.828;2023-02-26T01:23:39;0.80;85.40
7998;DHT22;4044;49.814;7.828;2023-02-26T01:26:16;0.90;84.70
7998;DHT22;4044;49.814;7.828;2023-02-26T01:28:43;0.80;85.00
7998;DHT22;4044;49.814;7.828;2023-02-26T01:31:32;0.90;84.80
7998;DHT22;4044;49.814;7.828;2023-02-26T01:34:04;0.90;84.50
7998;DHT22;4044;49.814;7.828;2023-02-26T01:36:35;0.90;84.00
7998;DHT22;4044;49.814;7.828;2023-02-26T01:41:42;0.90;83.70
7998;DHT22;4044;49.814;7.828;2023-02-26T01:49:36;0.80;84.70
7998;DHT22;4044;49.814;7.828;2023-02-26T01:53:06;0.80;84.40
7998;DHT22;4044;49.814;7.828;2023-02-26T01:54:52;0.80;85.90
7998;DHT22;4044;49.814;7.828;2023-02-26T01:57:19;0.70;86.40
7998;DHT22;4044;49.814;7.828;2023-02-26T01:59:48;0.80;84.80
7998;DHT22;4044;49.814;7.828;2023-02-26T02:02:20;0.80;83.70
7998;DHT22;4044;49.814;7.828;2023-02-26T02:04:47;1.00;84.50
7998;DHT22;4044;49.814;7.828;2023-02-26T02:07:13;1.10;84.50
7998;DHT22;4044;49.814;7.828;2023-02-26T02:09:39;1.20;84.40
7998;DHT22;4044;49.814;7.828;2023-02-26T02:12:20;1.20;83.90
7998;DHT22;4044;49.814;7.828;2023-02-26T02:23:18;1.20;85.70
7998;DHT22;4044;49.814;7.828;2023-02-26T02:28:49;1.10;84.30
7998;DHT22;4044;49.814;7.828;2023-02-26T02:31:25;1.20;85.40
7998;DHT22;4044;49.814;7.828;2023-02-26T02:33:59;1.20;83.30
7998;DHT22;4044;49.814;7.828;2023-02-26T02:36:34;1.10;82.80
7998;DHT22;4044;49.814;7.828;2023-02-26T02:39:17;1.20;82.70
7998;DHT22;4044;49.814;7.828;2023-02-26T02:42:05;1.20;82.60
7998;DHT22;4044;49.814;7.828;2023-02-26T02:44:35;1.30;82.00
7998;DHT22;4044;49.814;7.828;2023-02-26T02:47:04;1.40;81.70
7998;DHT22;4044;49.814;7.828;2023-02-26T02:49:34;1.50;81.80
7998;DHT22;4044;49.814;7.828;2023-02-26T02:52:12;1.50;81.80
7998;DHT22;4044;49.814;7.828;2023-02-26T02:54:53;1.50;81.40
7998;DHT22;4044;49.814;7.828;2023-02-26T02:57:30;1.70;81.10
7998;DHT22;4044;49.814;7.828;2023-02-26T03:00:00;1.70;81.80
7998;DHT22;4044;49.814;7.828;2023-02-26T03:05:01;1.80;82.00
7998;DHT22;4044;49.814;7.828;2023-02-26T03:07:32;1.80;82.30
7998;DHT22;4044;49.814;7.828;2023-02-26T03:09:59;1.60;82.90
7998;DHT22;4044;49.814;7.828;2023-02-26T03:12:26;1.60;83.80
7998;DHT22;4044;49.814;7.828;2023-02-26T03:14:55;1.70;84.60
7998;DHT22;4044;49.814;7.828;2023-02-26T03:17:32;1.70;85.20
7998;DHT22;4044;49.814;7.828;2023-02-26T03:28:11;0.90;91.00
7998;DHT22;4044;49.814;7.828;2023-02-26T03:30:50;0.90;91.50
7998;DHT22;4044;49.814;7.828;2023-02-26T03:33:29;0.80;91.60
7998;DHT22;4044;49.814;7.828;2023-02-26T03:36:07;0.60;91.80
7998;DHT22;4044;49.814;7.828;2023-02-26T03:38:53;0.60;92.30
7998;DHT22;4044;49.814;7.828;2023-02-26T03:41:43;0.50;92.40
7998;DHT22;4044;49.814;7.828;2023-02-26T03:44:36;0.50;93.20
7998;DHT22;4044;49.814;7.828;2023-02-26T03:47:05;0.60;93.20
7998;DHT22;4044;49.814;7.828;2023-02-26T03:49:36;0.60;93.20
7998;DHT22;4044;49.814;7.828;2023-02-26T03:52:04;0.60;93.40
7998;DHT22;4044;49.814;7.828;2023-02-26T03:54:58;0.50;92.90
7998;DHT22;4044;49.814;7.828;2023-02-26T03:57:25;0.50;93.20
7998;DHT22;4044;49.814;7.828;2023-02-26T03:59:51;0.50;93.50
7998;DHT22;4044;49.814;7.828;2023-02-26T04:02:21;0.40;93.10
7998;DHT22;4044;49.814;7.828;2023-02-26T04:04:57;0.50;93.40
7998;DHT22;4044;49.814;7.828;2023-02-26T04:07:23;0.30;93.20
7998;DHT22;4044;49.814;7.828;2023-02-26T04:09:50;0.30;93.50
7998;DHT22;4044;49.814;7.828;2023-02-26T04:12:21;0.20;93.50
7998;DHT22;4044;49.814;7.828;2023-02-26T04:14:47;0.10;93.70
7998;DHT22;4044;49.814;7.828;2023-02-26T04:17:12;0.00;93.40
7998;DHT22;4044;49.814;7.828;2023-02-26T04:19:38;-0.10;93.30
7998;DHT22;4044;49.814;7.828;2023-02-26T04:22:03;0.00;93.30
7998;DHT22;4044;49.814;7.828;2023-02-26T04:24:29;0.00;93.50
7998;DHT22;4044;49.814;7.828;2023-02-26T04:26:55;0.10;93.60
7998;DHT22;4044;49.814;7.828;2023-02-26T04:29:20;0.10;92.90
7998;DHT22;4044;49.814;7.828;2023-02-26T04:31:46;0.10;93.00
7998;DHT22;4044;49.814;7.828;2023-02-26T04:34:12;0.10;92.50
7998;DHT22;4044;49.814;7.828;2023-02-26T04:36:37;0.10;92.80
7998;DHT22;4044;49.814;7.828;2023-02-26T04:39:03;0.00;92.60
7998;DHT22;4044;49.814;7.828;2023-02-26T04:41:28;0.00;92.30
7998;DHT22;4044;49.814;7.828;2023-02-26T04:43:54;0.00;92.40
7998;DHT22;4044;49.814;7.828;2023-02-26T04:46:20;-0.10;92.20
7998;DHT22;4044;49.814;7.828;2023-02-26T04:48:45;-0.20;91.80
7998;DHT22;4044;49.814;7.828;2023-02-26T04:51:11;-0.20;91.70
7998;DHT22;4044;49.814;7.828;2023-02-26T04:53:36;-0.30;91.50
7998;DHT22;4044;49.814;7.828;2023-02-26T04:56:02;-0.30;91.50
7998;DHT22;4044;49.814;7.828;2023-02-26T04:58:27;-0.30;91.40
7998;DHT22;4044;49.814;7.828;2023-02-26T05:00:53;-0.30;91.60
7998;DHT22;4044;49.814;7.828;2023-02-26T05:03:20;-0.30;91.50
7998;DHT22;4044;49.814;7.828;2023-02-26T05:05:46;-0.40;91.20
7998;DHT22;4044;49.814;7.828;2023-02-26T05:08:12;-0.30;91.40
7998;DHT22;4044;49.814;7.828;2023-02-26T05:10:38;-0.40;91.30
7998;DHT22;4044;49.814;7.828;2023-02-26T05:13:03;-0.50;91.50
7998;DHT22;4044;49.814;7.828;2023-02-26T05:15:29;-0.50;91.40
7998;DHT22;4044;49.814;7.828;2023-02-26T05:17:54;-0.50;91.40
7998;DHT22;4044;49.814;7.828;2023-02-26T05:20:20;-0.60;91.60
7998;DHT22;4044;49.814;7.828;2023-02-26T05:22:46;-0.70;91.50
7998;DHT22;4044;49.814;7.828;2023-02-26T05:25:11;-0.60;91.40
7998;DHT22;4044;49.814;7.828;2023-02-26T05:27:38;-0.70;91.40
7998;DHT22;4044;49.814;7.828;2023-02-26T05:30:05;-0.60;91.40
7998;DHT22;4044;49.814;7.828;2023-02-26T05:32:31;-0.80;91.50
7998;DHT22;4044;49.814;7.828;2023-02-26T05:34:57;-0.80;91.30
7998;DHT22;4044;49.814;7.828;2023-02-26T05:37:22;-0.80;91.30
7998;DHT22;4044;49.814;7.828;2023-02-26T05:39:48;-0.70;91.50
7998;DHT22;4044;49.814;7.828;2023-02-26T05:42:14;-0.80;91.30
7998;DHT22;4044;49.814;7.828;2023-02-26T05:44:39;-0.80;91.20
7998;DHT22;4044;49.814;7.828;2023-02-26T05:47:05;-0.80;91.20
7998;DHT22;4044;49.814;7.828;2023-02-26T05:49:30;-0.80;91.40
7998;DHT22;4044;49.814;7.828;2023-02-26T05:51:56;-0.80;91.10
7998;DHT22;4044;49.814;7.828;2023-02-26T05:54:21;-0.80;91.20
7998;DHT22;4044;49.814;7.828;2023-02-26T05:56:47;-0.70;92.00
7998;DHT22;4044;49.814;7.828;2023-02-26T05:59:13;-0.50;91.70
7998;DHT22;4044;49.814;7.828;2023-02-26T06:01:38;-0.60;91.40
7998;DHT22;4044;49.814;7.828;2023-02-26T06:04:05;-0.50;91.00
7998;DHT22;4044;49.814;7.828;2023-02-26T06:06:31;-0.30;90.90
7998;DHT22;4044;49.814;7.828;2023-02-26T06:08:56;-0.50;90.60
7998;DHT22;4044;49.814;7.828;2023-02-26T06:11:22;-0.40;90.40
7998;DHT22;4044;49.814;7.828;2023-02-26T06:13:48;-0.50;91.00
7998;DHT22;4044;49.814;7.828;2023-02-26T06:16:13;-0.40;90.50
7998;DHT22;4044;49.814;7.828;2023-02-26T06:18:39;-0.70;90.00
7998;DHT22;4044;49.814;7.828;2023-02-26T06:21:04;-0.70;90.00
7998;DHT22;4044;49.814;7.828;2023-02-26T06:23:30;-0.80;89.80
7998;DHT22;4044;49.814;7.828;2023-02-26T06:25:55;-0.80;90.00
7998;DHT22;4044;49.814;7.828;2023-02-26T06:28:21;-0.90;90.00
7998;DHT22;4044;49.814;7.828;2023-02-26T06:30:48;-0.90;90.00
7998;DHT22;4044;49.814;7.828;2023-02-26T06:33:14;-0.90;89.40
7998;DHT22;4044;49.814;7.828;2023-02-26T06:35:39;-1.00;89.80
7998;DHT22;4044;49.814;7.828;2023-02-26T06:38:06;-0.90;89.50
7998;DHT22;4044;49.814;7.828;2023-02-26T06:40:32;-0.80;89.20
7998;DHT22;4044;49.814;7.828;2023-02-26T06:42:58;-0.90;89.20
7998;DHT22;4044;49.814;7.828;2023-02-26T06:45:23;-0.90;88.40
7998;DHT22;4044;49.814;7.828;2023-02-26T06:47:49;-0.70;89.10
7998;DHT22;4044;49.814;7.828;2023-02-26T06:50:15;-0.50;89.10
7998;DHT22;4044;49.814;7.828;2023-02-26T06:52:41;-0.40;88.50
7998;DHT22;4044;49.814;7.828;2023-02-26T06:55:07;-0.30;88.40
7998;DHT22;4044;49.814;7.828;2023-02-26T06:57:33;-0.20;87.50
7998;DHT22;4044;49.814;7.828;2023-02-26T06:59:58;0.00;88.30
7998;DHT22;4044;49.814;7.828;2023-02-26T07:02:25;0.10;86.90
7998;DHT22;4044;49.814;7.828;2023-02-26T07:04:50;0.20;87.00
7998;DHT22;4044;49.814;7.828;2023-02-26T07:07:17;0.30;87.00
7998;DHT22;4044;49.814;7.828;2023-02-26T07:09:43;0.50;85.30
7998;DHT22;4044;49.814;7.828;2023-02-26T07:12:09;0.60;85.60
7998;DHT22;4044;49.814;7.828;2023-02-26T07:14:34;0.70;85.60
7998;DHT22;4044;49.814;7.828;2023-02-26T07:17:01;0.80;85.00
7998;DHT22;4044;49.814;7.828;2023-02-26T07:19:27;0.80;85.30
7998;DHT22;4044;49.814;7.828;2023-02-26T07:21:52;0.80;84.20
7998;DHT22;4044;49.814;7.828;2023-02-26T07:24:20;0.70;83.30
7998;DHT22;4044;49.814;7.828;2023-02-26T07:26:45;0.60;84.40
7998;DHT22;4044;49.814;7.828;2023-02-26T07:29:11;0.60;84.10
7998;DHT22;4044;49.814;7.828;2023-02-26T07:31:36;0.50;84.30
7998;DHT22;4044;49.814;7.828;2023-02-26T07:34:02;0.50;83.80
7998;DHT22;4044;49.814;7.828;2023-02-26T07:36:28;0.50;84.80
7998;DHT22;4044;49.814;7.828;2023-02-26T07:38:53;0.60;86.00
7998;DHT22;4044;49.814;7.828;2023-02-26T07:41:19;0.80;83.90
7998;DHT22;4044;49.814;7.828;2023-02-26T07:43:45;1.00;83.40
7998;DHT22;4044;49.814;7.828;2023-02-26T07:46:11;1.10;82.60
7998;DHT22;4044;49.814;7.828;2023-02-26T07:48:36;1.20;82.80
7998;DHT22;4044;49.814;7.828;2023-02-26T07:51:02;1.40;83.10
7998;DHT22;4044;49.814;7.828;2023-02-26T07:53:28;1.60;83.10
7998;DHT22;4044;49.814;7.828;2023-02-26T07:55:53;1.60;84.20
7998;DHT22;4044;49.814;7.828;2023-02-26T07:58:19;1.70;82.30
7998;DHT22;4044;49.814;7.828;2023-02-26T08:00:45;1.90;82.10
7998;DHT22;4044;49.814;7.828;2023-02-26T08:03:11;1.80;80.80
7998;DHT22;4044;49.814;7.828;2023-02-26T08:05:36;1.70;80.80
7998;DHT22;4044;49.814;7.828;2023-02-26T08:08:02;1.60;81.60
7998;DHT22;4044;49.814;7.828;2023-02-26T08:10:29;1.60;82.30
7998;DHT22;4044;49.814;7.828;2023-02-26T08:12:54;1.60;82.50
7998;DHT22;4044;49.814;7.828;2023-02-26T08:15:20;1.60;83.00
7998;DHT22;4044;49.814;7.828;2023-02-26T08:17:46;1.60;81.50
7998;DHT22;4044;49.814;7.828;2023-02-26T08:20:12;1.60;82.20
7998;DHT22;4044;49.814;7.828;2023-02-26T08:22:39;1.60;81.60
7998;DHT22;4044;49.814;7.828;2023-02-26T08:25:05;1.60;80.90
7998;DHT22;4044;49.814;7.828;2023-02-26T08:27:32;1.50;80.70
7998;DHT22;4044;49.814;7.828;2023-02-26T08:29:57;1.40;81.80
7998;DHT22;4044;49.814;7.828;2023-02-26T08:32:23;1.30;81.90
7998;DHT22;4044;49.814;7.828;2023-02-26T08:34:48;1.40;80.80
7998;DHT22;4044;49.814;7.828;2023-02-26T08:37:14;1.30;80.60
7998;DHT22;4044;49.814;7.828;2023-02-26T08:39:40;1.30;81.20
7998;DHT22;4044;49.814;7.828;2023-02-26T08:42:06;1.40;81.10
7998;DHT22;4044;49.814;7.828;2023-02-26T08:44:32;1.50;81.10
7998;DHT22;4044;49.814;7.828;2023-02-26T08:46:58;1.60;80.70
7998;DHT22;4044;49.814;7.828;2023-02-26T08:49:24;1.80;81.40
7998;DHT22;4044;49.814;7.828;2023-02-26T08:51:50;1.90;79.50
7998;DHT22;4044;49.814;7.828;2023-02-26T08:54:15;1.90;79.30
7998;DHT22;4044;49.814;7.828;2023-02-26T08:56:41;2.00;79.80
7998;DHT22;4044;49.814;7.828;2023-02-26T08:59:07;2.10;80.30
7998;DHT22;4044;49.814;7.828;2023-02-26T09:01:34;2.20;79.80
7998;DHT22;4044;49.814;7.828;2023-02-26T09:04:00;2.30;78.50
7998;DHT22;4044;49.814;7.828;2023-02-26T09:06:25;2.50;79.50
7998;DHT22;4044;49.814;7.828;2023-02-26T09:08:51;2.60;78.30
7998;DHT22;4044;49.814;7.828;2023-02-26T09:11:17;2.70;77.10
7998;DHT22;4044;49.814;7.828;2023-02-26T09:13:42;3.00;78.70
7998;DHT22;4044;49.814;7.828;2023-02-26T09:16:08;3.20;76.80
7998;DHT22;4044;49.814;7.828;2023-02-26T09:18:33;3.30;76.90
7998;DHT22;4044;49.814;7.828;2023-02-26T09:20:59;3.30;76.50
7998;DHT22;4044;49.814;7.828;2023-02-26T09:23:25;3.30;76.00
7998;DHT22;4044;49.814;7.828;2023-02-26T09:25:55;3.40;76.50
7998;DHT22;4044;49.814;7.828;2023-02-26T09:28:21;3.40;76.10
7998;DHT22;4044;49.814;7.828;2023-02-26T09:30:51;3.50;76.00
7998;DHT22;4044;49.814;7.828;2023-02-26T09:33:17;3.50;76.40
7998;DHT22;4044;49.814;7.828;2023-02-26T09:35:42;3.60;75.50
7998;DHT22;4044;49.814;7.828;2023-02-26T09:38:08;3.60;75.50
7998;DHT22;4044;49.814;7.828;2023-02-26T09:41:01;3.60;75.90
7998;DHT22;4044;49.814;7.828;2023-02-26T09:46:32;3.80;74.40
7998;DHT22;4044;49.814;7.828;2023-02-26T09:51:32;3.80;73.20
7998;DHT22;4044;49.814;7.828;2023-02-26T09:53:59;3.90;73.80
7998;DHT22;4044;49.814;7.828;2023-02-26T09:56:32;4.00;74.10
7998;DHT22;4044;49.814;7.828;2023-02-26T09:58:58;4.30;73.70
7998;DHT22;4044;49.814;7.828;2023-02-26T10:12:42;4.60;71.00
7998;DHT22;4044;49.814;7.828;2023-02-26T10:15:10;4.60;70.50
7998;DHT22;4044;49.814;7.828;2023-02-26T10:23:22;4.60;69.80
7998;DHT22;4044;49.814;7.828;2023-02-26T10:36:52;5.70;67.20
7998;DHT22;4044;49.814;7.828;2023-02-26T10:39:33;6.00;66.80
7998;DHT22;4044;49.814;7.828;2023-02-26T10:42:14;6.20;66.30
7998;DHT22;4044;49.814;7.828;2023-02-26T10:44:55;6.60;66.50
7998;DHT22;4044;49.814;7.828;2023-02-26T10:47:38;6.70;65.20
7998;DHT22;4044;49.814;7.828;2023-02-26T10:50:12;6.80;65.10
7998;DHT22;4044;49.814;7.828;2023-02-26T10:52:42;6.90;61.50
7998;DHT22;4044;49.814;7.828;2023-02-26T11:00:33;6.60;61.40
7998;DHT22;4044;49.814;7.828;2023-02-26T11:03:03;6.30;63.30
7998;DHT22;4044;49.814;7.828;2023-02-26T11:05:30;6.30;62.50
7998;DHT22;4044;49.814;7.828;2023-02-26T11:08:00;6.10;61.80
7998;DHT22;4044;49.814;7.828;2023-02-26T11:10:51;6.00;62.10
7998;DHT22;4044;49.814;7.828;2023-02-26T11:13:17;5.70;62.80
7998;DHT22;4044;49.814;7.828;2023-02-26T11:15:46;5.80;63.30
7998;DHT22;4044;49.814;7.828;2023-02-26T11:18:15;5.90;63.60
7998;DHT22;4044;49.814;7.828;2023-02-26T11:20:44;5.90;64.30
7998;DHT22;4044;49.814;7.828;2023-02-26T11:23:15;6.10;63.20
7998;DHT22;4044;49.814;7.828;2023-02-26T11:25:41;6.10;64.00
7998;DHT22;4044;49.814;7.828;2023-02-26T11:28:20;6.00;63.40
7998;DHT22;4044;49.814;7.828;2023-02-26T11:30:47;5.80;63.30
7998;DHT22;4044;49.814;7.828;2023-02-26T11:33:32;5.90;63.70
7998;DHT22;4044;49.814;7.828;2023-02-26T11:36:00;5.90;63.30
7998;DHT22;4044;49.814;7.828;2023-02-26T11:38:27;5.80;64.60
7998;DHT22;4044;49.814;7.828;2023-02-26T11:40:55;5.70;64.40
7998;DHT22;4044;49.814;7.828;2023-02-26T11:43:23;5.70;65.60
7998;DHT22;4044;49.814;7.828;2023-02-26T11:45:57;5.60;66.50
7998;DHT22;4044;49.814;7.828;2023-02-26T11:48:25;5.50;64.70
7998;DHT22;4044;49.814;7.828;2023-02-26T11:50:59;5.40;65.40
7998;DHT22;4044;49.814;7.828;2023-02-26T11:53:36;5.70;66.10
7998;DHT22;4044;49.814;7.828;2023-02-26T11:56:13;5.80;64.80
7998;DHT22;4044;49.814;7.828;2023-02-26T11:58:43;5.90;64.30
7998;DHT22;4044;49.814;7.828;2023-02-26T12:01:12;5.90;65.10
7998;DHT22;4044;49.814;7.828;2023-02-26T12:03:39;6.00;65.20
7998;DHT22;4044;49.814;7.828;2023-02-26T12:06:16;6.10;64.90
7998;DHT22;4044;49.814;7.828;2023-02-26T12:08:42;5.60;63.20
7998;DHT22;4044;49.814;7.828;2023-02-26T12:19:21;6.10;65.70
7998;DHT22;4044;49.814;7.828;2023-02-26T12:25:16;6.00;64.60
7998;DHT22;4044;49.814;7.828;2023-02-26T12:36:12;5.90;63.20
7998;DHT22;4044;49.814;7.828;2023-02-26T12:52:56;5.40;62.70
7998;DHT22;4044;49.814;7.828;2023-02-26T13:01:17;5.80;62.10
7998;DHT22;4044;49.814;7.828;2023-02-26T13:04:05;6.10;60.40
7998;DHT22;4044;49.814;7.828;2023-02-26T13:06:39;6.80;61.10
7998;DHT22;4044;49.814;7.828;2023-02-26T13:12:21;8.60;57.90
7998;DHT22;4044;49.814;7.828;2023-02-26T13:14:56;8.70;56.80
7998;DHT22;4044;49.814;7.828;2023-02-26T13:18:31;8.50;56.70
7998;DHT22;4044;49.814;7.828;2023-02-26T13:20:28;8.40;57.30
7998;DHT22;4044;49.814;7.828;2023-02-26T13:23:00;8.20;57.20
7998;DHT22;4044;49.814;7.828;2023-02-26T13:25:40;8.40;57.10
7998;DHT22;4044;49.814;7.828;2023-02-26T13:28:22;8.80;56.90
7998;DHT22;4044;49.814;7.828;2023-02-26T13:30:51;8.60;56.10
7998;DHT22;4044;49.814;7.828;2023-02-26T13:33:20;8.50;56.20
7998;DHT22;4044;49.814;7.828;2023-02-26T13:35:48;8.80;56.80
7998;DHT22;4044;49.814;7.828;2023-02-26T13:41:09;9.40;55.30
7998;DHT22;4044;49.814;7.828;2023-02-26T13:43:54;9.40;56.00
7998;DHT22;4044;49.814;7.828;2023-02-26T13:46:32;9.10;55.80
7998;DHT22;4044;49.814;7.828;2023-02-26T13:51:49;8.50;57.00
7998;DHT22;4044;49.814;7.828;2023-02-26T13:57:06;8.00;57.70
7998;DHT22;4044;49.814;7.828;2023-02-26T13:59:35;7.80;56.90
7998;DHT22;4044;49.814;7.828;2023-02-26T14:02:35;7.50;57.80
7998;DHT22;4044;49.814;7.828;2023-02-26T14:05:09;7.40;58.10
7998;DHT22;4044;49.814;7.828;2023-02-26T14:11:03;7.10;58.20
7998;DHT22;4044;49.814;7.828;2023-02-26T14:13:38;7.10;59.50
7998;DHT22;4044;49.814;7.828;2023-02-26T14:23:57;7.00;58.80
7998;DHT22;4044;49.814;7.828;2023-02-26T14:26:27;6.90;59.10
7998;DHT22;4044;49.814;7.828;2023-02-26T14:28:55;7.00;59.30
7998;DHT22;4044;49.814;7.828;2023-02-26T14:31:23;7.00;58.30
7998;DHT22;4044;49.814;7.828;2023-02-26T14:34:12;6.90;59.40
7998;DHT22;4044;49.814;7.828;2023-02-26T14:36:45;6.80;59.10
7998;DHT22;4044;49.814;7.828;2023-02-26T14:39:39;6.90;59.40
7998;DHT22;4044;49.814;7.828;2023-02-26T14:42:11;7.00;58.70
7998;DHT22;4044;49.814;7.828;2023-02-26T14:44:43;6.90;58.90
7998;DHT22;4044;49.814;7.828;2023-02-26T14:47:11;6.70;59.50
7998;DHT22;4044;49.814;7.828;2023-02-26T14:49:43;6.50;60.20
7998;DHT22;4044;49.814;7.828;2023-02-26T15:00:52;6.10;61.90
7998;DHT22;4044;49.814;7.828;2023-02-26T15:14:08;6.90;61.30
7998;DHT22;4044;49.814;7.828;2023-02-26T15:16:52;7.40;61.20
7998;DHT22;4044;49.814;7.828;2023-02-26T15:25:38;8.20;58.40
7998;DHT22;4044;49.814;7.828;2023-02-26T15:28:05;7.70;58.70
7998;DHT22;4044;49.814;7.828;2023-02-26T15:30:32;7.40;58.40
7998;DHT22;4044;49.814;7.828;2023-02-26T15:33:01;7.00;59.50
7998;DHT22;4044;49.814;7.828;2023-02-26T15:35:29;6.90;59.40
7998;DHT22;4044;49.814;7.828;2023-02-26T15:37:58;6.60;60.50
7998;DHT22;4044;49.814;7.828;2023-02-26T15:40:28;6.90;62.80
7998;DHT22;4044;49.814;7.828;2023-02-26T15:42:56;7.50;60.90
7998;DHT22;4044;49.814;7.828;2023-02-26T15:45:31;7.90;60.00
7998;DHT22;4044;49.814;7.828;2023-02-26T15:48:06;7.90;59.00
7998;DHT22;4044;49.814;7.828;2023-02-26T15:50:36;8.00;58.80
7998;DHT22;4044;49.814;7.828;2023-02-26T15:53:04;8.20;59.10
7998;DHT22;4044;49.814;7.828;2023-02-26T15:55:36;8.00;58.50
7998;DHT22;4044;49.814;7.828;2023-02-26T15:58:03;7.70;58.60
7998;DHT22;4044;49.814;7.828;2023-02-26T16:00:32;7.40;60.30
7998;DHT22;4044;49.814;7.828;2023-02-26T16:02:58;7.30;60.50
7998;DHT22;4044;49.814;7.828;2023-02-26T16:05:28;7.00;59.90
7998;DHT22;4044;49.814;7.828;2023-02-26T16:07:54;6.80;61.30
7998;DHT22;4044;49.814;7.828;2023-02-26T16:12:53;6.30;60.40
7998;DHT22;4044;49.814;7.828;2023-02-26T16:15:29;6.20;59.40
7998;DHT22;4044;49.814;7.828;2023-02-26T16:17:56;6.10;59.30
7998;DHT22;4044;49.814;7.828;2023-02-26T16:20:25;6.10;60.30
7998;DHT22;4044;49.814;7.828;2023-02-26T16:22:59;6.10;60.70
7998;DHT22;4044;49.814;7.828;2023-02-26T16:25:35;6.00;59.80
7998;DHT22;4044;49.814;7.828;2023-02-26T16:28:17;5.80;59.40
7998;DHT22;4044;49.814;7.828;2023-02-26T16:30:46;5.50;61.50
7998;DHT22;4044;49.814;7.828;2023-02-26T16:33:14;5.50;61.10
7998;DHT22;4044;49.814;7.828;2023-02-26T16:35:52;5.20;59.80
7998;DHT22;4044;49.814;7.828;2023-02-26T16:38:41;5.00;61.10
7998;DHT22;4044;49.814;7.828;2023-02-26T16:41:08;4.90;62.30
7998;DHT22;4044;49.814;7.828;2023-02-26T16:46:15;4.70;61.30
7998;DHT22;4044;49.814;7.828;2023-02-26T16:48:48;4.60;63.80
7998;DHT22;4044;49.814;7.828;2023-02-26T16:51:19;4.40;61.90
7998;DHT22;4044;49.814;7.828;2023-02-26T16:53:46;4.20;64.40
7998;DHT22;4044;49.814;7.828;2023-02-26T16:56:16;4.20;63.70
7998;DHT22;4044;49.814;7.828;2023-02-26T16:58:49;4.00;63.30
7998;DHT22;4044;49.814;7.828;2023-02-26T17:01:19;4.00;63.10
7998;DHT22;4044;49.814;7.828;2023-02-26T17:03:47;3.90;63.10
7998;DHT22;4044;49.814;7.828;2023-02-26T17:06:16;3.90;63.20
7998;DHT22;4044;49.814;7.828;2023-02-26T17:08:50;3.80;62.80
7998;DHT22;4044;49.814;7.828;2023-02-26T17:11:26;3.90;62.60
7998;DHT22;4044;49.814;7.828;2023-02-26T17:14:19;3.60;63.80
7998;DHT22;4044;49.814;7.828;2023-02-26T17:16:47;3.50;64.20
7998;DHT22;4044;49.814;7.828;2023-02-26T17:19:13;3.30;64.80
7998;DHT22;4044;49.814;7.828;2023-02-26T17:21:48;3.10;63.90
7998;DHT22;4044;49.814;7.828;2023-02-26T17:24:31;3.00;64.30
7998;DHT22;4044;49.814;7.828;2023-02-26T17:26:58;2.80;63.60
7998;DHT22;4044;49.814;7.828;2023-02-26T17:29:34;2.70;63.30
7998;DHT22;4044;49.814;7.828;2023-02-26T17:32:02;2.60;65.30
7998;DHT22;4044;49.814;7.828;2023-02-26T17:34:28;2.40;65.20
7998;DHT22;4044;49.814;7.828;2023-02-26T17:36:54;2.30;65.10
7998;DHT22;4044;49.814;7.828;2023-02-26T17:39:21;2.30;65.10
7998;DHT22;4044;49.814;7.828;2023-02-26T17:41:46;2.10;65.90
7998;DHT22;4044;49.814;7.828;2023-02-26T17:44:13;2.10;66.70
7998;DHT22;4044;49.814;7.828;2023-02-26T17:46:39;2.00;66.60
7998;DHT22;4044;49.814;7.828;2023-02-26T17:49:04;2.00;66.60
7998;DHT22;4044;49.814;7.828;2023-02-26T17:51:30;1.90;66.70
7998;DHT22;4044;49.814;7.828;2023-02-26T17:53:55;1.80;67.20
7998;DHT22;4044;49.814;7.828;2023-02-26T17:56:26;1.70;67.20
7998;DHT22;4044;49.814;7.828;2023-02-26T17:58:53;1.60;68.10
7998;DHT22;4044;49.814;7.828;2023-02-26T18:01:20;1.50;68.50
7998;DHT22;4044;49.814;7.828;2023-02-26T18:03:48;1.30;69.50
7998;DHT22;4044;49.814;7.828;2023-02-26T18:06:14;1.20;69.70
7998;DHT22;4044;49.814;7.828;2023-02-26T18:08:40;1.10;70.80
7998;DHT22;4044;49.814;7.828;2023-02-26T18:11:06;0.90;72.70
7998;DHT22;4044;49.814;7.828;2023-02-26T18:13:34;0.80;72.60
7998;DHT22;4044;49.814;7.828;2023-02-26T18:16:00;0.70;73.00
7998;DHT22;4044;49.814;7.828;2023-02-26T18:18:28;0.70;72.20
7998;DHT22;4044;49.814;7.828;2023-02-26T18:20:54;0.70;72.40
7998;DHT22;4044;49.814;7.828;2023-02-26T18:23:20;0.60;72.40
7998;DHT22;4044;49.814;7.828;2023-02-26T18:25:47;0.70;72.30
7998;DHT22;4044;49.814;7.828;2023-02-26T18:28:20;0.60;72.40
7998;DHT22;4044;49.814;7.828;2023-02-26T18:30:46;0.50;73.20
7998;DHT22;4044;49.814;7.828;2023-02-26T18:33:12;0.50;72.90
7998;DHT22;4044;49.814;7.828;2023-02-26T18:35:42;0.50;74.20
7998;DHT22;4044;49.814;7.828;2023-02-26T18:38:15;0.50;74.10
7998;DHT22;4044;49.814;7.828;2023-02-26T18:40:42;0.50;74.10
7998;DHT22;4044;49.814;7.828;2023-02-26T18:43:07;0.50;74.40
7998;DHT22;4044;49.814;7.828;2023-02-26T18:45:40;0.60;73.30
7998;DHT22;4044;49.814;7.828;2023-02-26T18:48:05;0.70;72.80
7998;DHT22;4044;49.814;7.828;2023-02-26T18:50:31;0.70;74.10
7998;DHT22;4044;49.814;7.828;2023-02-26T18:52:57;0.70;74.30
7998;DHT22;4044;49.814;7.828;2023-02-26T18:55:22;0.70;74.70
7998;DHT22;4044;49.814;7.828;2023-02-26T18:57:48;0.70;73.90
7998;DHT22;4044;49.814;7.828;2023-02-26T19:00:14;0.70;73.30
7998;DHT22;4044;49.814;7.828;2023-02-26T19:02:41;0.70;73.90
7998;DHT22;4044;49.814;7.828;2023-02-26T19:05:07;0.70;73.90
7998;DHT22;4044;49.814;7.828;2023-02-26T19:07:34;0.80;73.60
7998;DHT22;4044;49.814;7.828;2023-02-26T19:09:59;0.90;74.60
7998;DHT22;4044;49.814;7.828;2023-02-26T19:12:26;1.00;75.00
7998;DHT22;4044;49.814;7.828;2023-02-26T19:14:52;1.10;74.00